createdAt,value
2022-11-18T00:02:07.980Z,25.40
2022-11-18T00:04:34.767Z,25.83
2022-11-18T00:07:01.617Z,26.33
2022-11-18T00:09:28.476Z,26.67
2022-11-18T00:12:13.674Z,26.90
2022-11-18T00:14:40.470Z,27.02
2022-11-18T00:17:07.873Z,26.83
2022-11-18T00:19:37.151Z,30.52
2022-11-18T00:22:05.697Z,31.40
2022-11-18T00:24:32.696Z,29.88
2022-11-18T00:26:59.766Z,30.95
2022-11-18T00:29:28.588Z,32.47
2022-11-18T00:31:56.853Z,30.23
2022-11-18T00:34:24.416Z,35.83
2022-11-18T00:36:51.399Z,34.42
2022-11-18T00:39:20.614Z,34.65
2022-11-18T00:42:06.733Z,37.80
2022-11-18T00:44:33.898Z,36.55
2022-11-18T00:47:00.683Z,46.83
2022-11-18T00:49:27.509Z,41.65
2022-11-18T00:51:54.379Z,38.72
2022-11-18T00:54:21.301Z,36.13
2022-11-18T00:56:48.104Z,38.15
2022-11-18T00:59:15.102Z,38.63
2022-11-18T01:01:42.218Z,40.15
2022-11-18T01:04:09.085Z,38.15
2022-11-18T01:06:35.858Z,40.08
2022-11-18T01:09:02.679Z,38.35
2022-11-18T01:11:48.092Z,38.28
2022-11-18T01:14:14.916Z,41.50
2022-11-18T01:16:41.664Z,41.55
2022-11-18T01:19:08.626Z,47.95
2022-11-18T01:21:36.302Z,42.17
2022-11-18T01:24:03.142Z,42.15
2022-11-18T01:26:29.944Z,48.55
2022-11-18T01:28:57.811Z,42.83
2022-11-18T01:31:24.743Z,41.45
2022-11-18T01:33:51.739Z,41.15
2022-11-18T01:36:24.303Z,43.20
2022-11-18T01:38:52.251Z,41.50
2022-11-18T01:41:21.056Z,40.80
2022-11-18T01:44:24.259Z,34.67
2022-11-18T01:46:51.016Z,39.90
2022-11-18T01:49:18.521Z,39.47
2022-11-18T01:51:58.164Z,37.78
2022-11-18T01:54:34.149Z,35.25
2022-11-18T01:57:05.595Z,37.88
2022-11-18T01:59:35.573Z,38.40
2022-11-18T02:02:08.295Z,39.80
2022-11-18T02:04:35.121Z,37.70
2022-11-18T02:07:02.813Z,38.35
2022-11-18T02:09:30.548Z,39.13
2022-11-18T02:11:57.697Z,37.90
2022-11-18T02:14:28.319Z,37.05
2022-11-18T02:17:06.231Z,34.97
2022-11-18T02:19:41.176Z,36.80
2022-11-18T02:22:25.760Z,37.38
2022-11-18T02:25:17.058Z,38.38
2022-11-18T02:28:31.634Z,36.25
2022-11-18T02:31:08.375Z,34.88
2022-11-18T02:33:49.773Z,31.90
2022-11-18T02:36:22.735Z,36.70
2022-11-18T02:38:54.191Z,35.20
2022-11-18T02:41:26.826Z,37.20
2022-11-18T02:43:59.375Z,39.72
2022-11-18T02:46:31.138Z,36.22
2022-11-18T02:51:28.502Z,36.00
2022-11-18T02:54:04.087Z,42.35
2022-11-18T02:56:33.383Z,40.35
2022-11-18T02:59:00.184Z,37.38
2022-11-18T03:01:29.984Z,39.05
2022-11-18T03:03:57.362Z,36.03
2022-11-18T03:06:56.927Z,33.65
2022-11-18T03:09:35.258Z,35.03
2022-11-18T03:12:32.619Z,34.65
2022-11-18T03:15:11.416Z,32.63
2022-11-18T03:17:44.114Z,32.17
2022-11-18T03:20:27.745Z,34.60
2022-11-18T03:23:14.504Z,35.08
2022-11-18T03:25:54.198Z,31.70
2022-11-18T03:28:20.960Z,31.98
2022-11-18T03:31:19.656Z,32.53
2022-11-18T03:33:51.945Z,31.85
2022-11-18T03:36:22.805Z,33.53
2022-11-18T03:38:54.381Z,32.20
2022-11-18T03:41:24.132Z,33.85
2022-11-18T03:43:57.985Z,31.95
2022-11-18T03:46:46.824Z,34.20
2022-11-18T03:49:26.560Z,36.67
2022-11-18T03:52:00.109Z,35.35
2022-11-18T03:54:32.303Z,32.65
2022-11-18T03:57:16.903Z,32.33
2022-11-18T04:00:22.911Z,33.00
2022-11-18T04:02:50.483Z,32.85
2022-11-18T04:05:19.335Z,28.77
2022-11-18T04:07:56.694Z,32.50
2022-11-18T04:10:33.431Z,28.15
2022-11-18T04:13:18.335Z,33.15
2022-11-18T04:15:45.220Z,29.77
2022-11-18T04:18:12.344Z,29.70
2022-11-18T04:20:39.481Z,30.20
2022-11-18T04:23:07.699Z,30.73
2022-11-18T04:25:35.480Z,30.48
2022-11-18T04:28:02.344Z,30.23
2022-11-18T04:30:31.127Z,29.20
2022-11-18T04:32:58.467Z,28.73
2022-11-18T04:35:26.246Z,32.88
2022-11-18T04:37:53.410Z,27.92
2022-11-18T04:40:20.184Z,27.38
2022-11-18T04:42:47.544Z,26.27
2022-11-18T04:45:14.334Z,27.35
2022-11-18T04:47:41.640Z,26.33
2022-11-18T04:50:09.079Z,26.65
2022-11-18T04:52:36.005Z,54.42
2022-11-18T04:55:03.223Z,37.10
2022-11-18T04:57:29.989Z,25.85
2022-11-18T04:59:56.752Z,27.17
2022-11-18T05:02:23.607Z,26.40
2022-11-18T05:04:50.417Z,25.45
2022-11-18T05:07:17.406Z,25.35
2022-11-18T05:09:44.316Z,24.92
2022-11-18T05:12:33.834Z,23.48
2022-11-18T05:15:01.216Z,22.40
2022-11-18T05:17:28.066Z,21.95
2022-11-18T05:19:54.987Z,24.58
2022-11-18T05:22:21.966Z,24.70
2022-11-18T05:24:49.068Z,23.27
2022-11-18T05:27:16.192Z,24.27
2022-11-18T05:29:43.743Z,25.33
2022-11-18T05:32:10.568Z,25.70
2022-11-18T05:34:37.355Z,24.25
2022-11-18T05:37:04.167Z,25.60
2022-11-18T05:39:33.816Z,26.10
2022-11-18T05:42:19.194Z,26.45
2022-11-18T05:44:46.362Z,27.15
2022-11-18T05:47:13.650Z,27.85
2022-11-18T05:49:40.412Z,27.83
2022-11-18T05:52:07.384Z,28.90
2022-11-18T05:54:34.291Z,27.20
2022-11-18T05:57:01.748Z,26.85
2022-11-18T05:59:29.003Z,29.45
2022-11-18T06:02:11.780Z,29.63
2022-11-18T06:04:56.292Z,28.27
2022-11-18T06:07:40.337Z,31.98
2022-11-18T06:10:07.752Z,28.90
2022-11-18T06:12:41.009Z,29.67
2022-11-18T06:15:15.711Z,30.27
2022-11-18T06:18:05.662Z,28.38
2022-11-18T06:20:35.398Z,28.50
2022-11-18T06:23:02.244Z,27.75
2022-11-18T06:25:29.356Z,26.77
2022-11-18T06:27:59.820Z,28.77
2022-11-18T06:30:26.623Z,26.75
2022-11-18T06:32:53.657Z,26.92
2022-11-18T06:35:20.417Z,28.77
2022-11-18T06:37:47.640Z,27.13
2022-11-18T06:40:14.676Z,28.17
2022-11-18T06:42:59.903Z,27.17
2022-11-18T06:45:26.861Z,28.17
2022-11-18T06:47:58.134Z,26.95
2022-11-18T06:50:24.948Z,25.17
2022-11-18T06:52:51.743Z,26.60
2022-11-18T06:55:18.800Z,26.17
2022-11-18T06:57:46.020Z,27.63
2022-11-18T07:00:13.644Z,25.95
2022-11-18T07:02:40.395Z,27.27
2022-11-18T07:05:07.395Z,25.23
2022-11-18T07:07:41.701Z,23.48
2022-11-18T07:10:09.614Z,24.98
2022-11-18T07:12:36.362Z,25.73
2022-11-18T07:15:03.325Z,25.27
2022-11-18T07:17:31.199Z,24.00
2022-11-18T07:19:58.039Z,26.52
2022-11-18T07:22:24.803Z,24.70
2022-11-18T07:24:51.592Z,24.27
2022-11-18T07:27:18.361Z,20.67
2022-11-18T07:29:45.109Z,23.45
2022-11-18T07:32:11.866Z,23.05
2022-11-18T07:34:38.774Z,21.02
2022-11-18T07:37:05.535Z,22.13
2022-11-18T07:39:32.375Z,24.90
2022-11-18T07:41:59.426Z,24.17
2022-11-18T07:44:26.188Z,23.17
2022-11-18T07:46:53.072Z,20.08
2022-11-18T07:49:20.115Z,24.73
2022-11-18T07:51:47.123Z,22.15
2022-11-18T07:54:17.111Z,23.40
2022-11-18T07:56:44.061Z,22.63
2022-11-18T07:59:10.898Z,22.38
2022-11-18T08:01:37.872Z,19.83
2022-11-18T08:04:10.709Z,21.80
2022-11-18T08:06:38.865Z,22.30
2022-11-18T08:09:07.136Z,20.95
2022-11-18T08:11:33.999Z,20.80
2022-11-18T08:14:00.887Z,20.02
2022-11-18T08:16:28.045Z,19.85
2022-11-18T08:18:55.198Z,20.35
2022-11-18T08:21:23.296Z,19.95
2022-11-18T08:23:51.803Z,21.00
2022-11-18T08:26:19.447Z,20.73
2022-11-18T08:28:46.583Z,20.48
2022-11-18T08:31:16.569Z,20.17
2022-11-18T08:34:12.115Z,19.40
2022-11-18T08:36:39.090Z,18.70
2022-11-18T08:39:11.566Z,19.48
2022-11-18T08:41:43.484Z,17.92
2022-11-18T08:44:15.943Z,18.55
2022-11-18T08:46:46.214Z,18.65
2022-11-18T08:49:13.083Z,17.42
2022-11-18T08:51:39.911Z,17.27
2022-11-18T08:54:06.742Z,17.20
2022-11-18T08:56:33.577Z,19.23
2022-11-18T08:59:00.456Z,16.05
2022-11-18T09:01:27.721Z,16.45
2022-11-18T09:03:54.753Z,15.02
2022-11-18T09:06:24.273Z,15.27
2022-11-18T09:08:51.278Z,14.75
2022-11-18T09:11:26.655Z,16.05
2022-11-18T09:16:43.047Z,14.00
2022-11-18T09:19:39.673Z,15.00
2022-11-18T09:21:56.632Z,15.40
2022-11-18T09:24:23.463Z,15.75
2022-11-18T09:26:50.371Z,14.80
2022-11-18T09:29:17.265Z,14.88
2022-11-18T09:31:44.104Z,14.85
2022-11-18T09:34:13.951Z,13.80
2022-11-18T09:36:40.729Z,14.63
2022-11-18T09:39:12.088Z,14.52
2022-11-18T09:41:51.100Z,13.93
2022-11-18T09:44:26.947Z,13.40
2022-11-18T09:47:08.795Z,12.95
2022-11-18T09:50:20.353Z,13.05
2022-11-18T09:53:03.955Z,13.38
2022-11-18T09:55:31.880Z,14.77
2022-11-18T09:57:59.529Z,13.75
2022-11-18T10:00:30.296Z,12.23
2022-11-18T10:03:03.036Z,13.55
2022-11-18T10:05:44.104Z,13.27
2022-11-18T10:08:17.201Z,12.67
2022-11-18T10:10:58.874Z,13.68
2022-11-18T10:13:28.352Z,13.43
2022-11-18T10:16:08.842Z,13.40
2022-11-18T10:19:00.576Z,13.02
2022-11-18T10:21:46.635Z,13.50
2022-11-18T10:24:20.878Z,32.30
2022-11-18T10:26:48.167Z,15.43
2022-11-18T10:29:14.991Z,13.20
2022-11-18T10:32:06.590Z,13.65
2022-11-18T10:34:35.314Z,14.40
2022-11-18T10:37:52.489Z,13.15
2022-11-18T10:40:36.032Z,14.57
2022-11-18T10:43:02.912Z,20.13
2022-11-18T10:45:31.727Z,17.75
2022-11-18T10:47:59.792Z,17.13
2022-11-18T10:50:32.084Z,16.13
2022-11-18T10:52:59.545Z,17.15
2022-11-18T10:55:28.516Z,16.73
2022-11-18T10:57:59.697Z,18.77
2022-11-18T11:00:42.455Z,16.05
2022-11-18T11:03:31.644Z,16.77
2022-11-18T11:06:26.348Z,16.25
2022-11-18T11:08:56.333Z,15.85
2022-11-18T11:11:30.114Z,17.27
2022-11-18T11:14:34.492Z,18.92
2022-11-18T11:17:12.513Z,19.92
2022-11-18T11:19:42.575Z,19.45
2022-11-18T11:22:14.402Z,20.80
2022-11-18T11:30:20.417Z,22.02
2022-11-18T11:33:10.119Z,21.55
2022-11-18T11:35:53.927Z,20.45
2022-11-18T11:38:43.563Z,22.10
2022-11-18T11:41:22.049Z,22.10
2022-11-18T11:43:48.779Z,21.75
2022-11-18T11:46:29.515Z,20.48
2022-11-18T11:49:06.801Z,21.70
2022-11-18T11:51:37.750Z,22.45
2022-11-18T11:54:13.683Z,23.10
2022-11-18T11:56:59.136Z,23.20
2022-11-18T11:59:28.971Z,22.83
2022-11-18T12:02:17.368Z,24.77
2022-11-18T12:04:51.591Z,23.80
2022-11-18T12:07:58.066Z,21.65
2022-11-18T12:10:51.438Z,22.73
2022-11-18T12:13:48.953Z,23.25
2022-11-18T12:16:24.036Z,23.15
2022-11-18T12:18:56.938Z,23.42
2022-11-18T12:21:42.355Z,23.48
2022-11-18T12:24:31.163Z,23.38
2022-11-18T12:27:00.292Z,24.05
2022-11-18T12:29:40.740Z,23.65
2022-11-18T12:32:27.732Z,22.13
2022-11-18T12:35:01.316Z,22.15
2022-11-18T12:37:28.058Z,22.42
2022-11-18T12:39:58.879Z,23.65
2022-11-18T12:42:57.570Z,22.83
2022-11-18T12:45:45.918Z,22.80
2022-11-18T12:48:28.917Z,21.65
2022-11-18T12:50:58.356Z,22.38
2022-11-18T12:53:39.119Z,22.13
2022-11-18T12:56:18.150Z,22.75
2022-11-18T12:58:46.757Z,21.77
2022-11-18T13:01:16.649Z,21.88
2022-11-18T13:03:43.535Z,20.90
2022-11-18T13:06:19.427Z,22.27
2022-11-18T13:08:53.496Z,22.70
2022-11-18T13:11:39.835Z,23.15
2022-11-18T13:14:32.621Z,22.25
2022-11-18T13:17:18.067Z,22.25
2022-11-18T13:19:57.727Z,22.75
2022-11-18T13:22:43.589Z,24.27
2022-11-18T13:25:24.774Z,24.02
2022-11-18T13:28:06.782Z,22.75
2022-11-18T13:33:03.498Z,24.33
2022-11-18T13:35:30.651Z,25.42
2022-11-18T13:38:00.330Z,26.17
2022-11-18T13:40:38.189Z,26.23
2022-11-18T13:43:05.026Z,26.50
2022-11-18T13:45:34.077Z,27.15
2022-11-18T13:48:14.556Z,27.60
2022-11-18T13:50:51.190Z,28.40
2022-11-18T13:53:27.065Z,27.00
2022-11-18T13:55:56.266Z,27.48
2022-11-18T13:59:15.605Z,29.48
2022-11-18T14:01:33.236Z,29.45
2022-11-18T14:04:16.201Z,29.25
2022-11-18T14:06:43.122Z,28.65
2022-11-18T14:09:16.663Z,31.30
2022-11-18T14:12:08.586Z,31.67
2022-11-18T14:18:26.205Z,30.73
2022-11-18T14:20:54.719Z,31.15
2022-11-18T14:23:36.653Z,30.33
2022-11-18T14:28:37.232Z,30.20
2022-11-18T14:31:13.088Z,31.45
2022-11-18T14:33:40.038Z,31.25
2022-11-18T14:36:17.895Z,31.05
2022-11-18T14:39:11.839Z,28.45
2022-11-18T14:41:47.316Z,28.15
2022-11-18T14:44:14.622Z,28.98
2022-11-18T14:46:43.895Z,29.00
2022-11-18T14:49:14.677Z,28.58
2022-11-18T14:51:41.481Z,28.13
2022-11-18T14:54:13.958Z,28.83
2022-11-18T14:56:42.119Z,28.60
2022-11-18T14:59:17.339Z,27.70
2022-11-18T15:01:45.062Z,29.15
2022-11-18T15:04:12.079Z,28.00
2022-11-18T15:06:40.005Z,88.47
2022-11-18T15:09:10.482Z,31.58
2022-11-18T15:11:37.313Z,32.20
2022-11-18T15:14:04.103Z,31.27
2022-11-18T15:16:32.647Z,30.25
2022-11-18T15:19:01.516Z,28.77
2022-11-18T15:21:28.685Z,41.60
2022-11-18T15:23:55.730Z,28.55
2022-11-18T15:26:26.977Z,32.47
2022-11-18T15:28:56.205Z,30.48
2022-11-18T15:31:24.273Z,27.75
2022-11-18T15:33:51.295Z,27.98
2022-11-18T15:36:19.250Z,28.00
2022-11-18T15:38:46.755Z,28.98
2022-11-18T15:41:22.996Z,30.13
2022-11-18T15:43:50.492Z,30.25
2022-11-18T15:46:20.473Z,30.45
2022-11-18T15:48:48.417Z,28.35
2022-11-18T15:51:15.260Z,29.75
2022-11-18T15:53:42.019Z,28.70
2022-11-18T15:56:21.169Z,27.83
2022-11-18T15:59:05.520Z,24.63
2022-11-18T16:01:38.186Z,26.13
2022-11-18T16:04:06.633Z,27.75
2022-11-18T16:06:33.809Z,27.50
2022-11-18T16:09:00.911Z,25.55
2022-11-18T16:11:47.674Z,24.95
2022-11-18T16:14:17.248Z,25.08
2022-11-18T16:16:46.199Z,27.10
2022-11-18T16:19:15.725Z,27.35
2022-11-18T16:21:46.363Z,27.55
2022-11-18T16:24:47.127Z,28.40
2022-11-18T16:27:15.036Z,27.83
2022-11-18T16:29:41.832Z,26.55
2022-11-18T16:32:13.252Z,25.98
2022-11-18T16:34:40.662Z,26.00
2022-11-18T16:37:08.808Z,27.92
2022-11-18T16:39:35.538Z,26.92
2022-11-18T16:42:08.345Z,26.40
2022-11-18T16:44:36.706Z,25.80
2022-11-18T16:47:09.169Z,27.08
2022-11-18T16:49:40.942Z,25.40
2022-11-18T16:52:08.130Z,24.60
2022-11-18T16:54:36.347Z,25.58
2022-11-18T16:57:06.413Z,25.83
2022-11-18T16:59:33.162Z,29.25
2022-11-18T17:02:02.124Z,29.88
2022-11-18T17:04:30.709Z,29.35
2022-11-18T17:07:00.016Z,28.48
2022-11-18T17:09:27.071Z,28.90
2022-11-18T17:11:57.151Z,29.77
2022-11-18T17:14:24.561Z,28.70
2022-11-18T17:16:52.601Z,30.77
2022-11-18T17:19:22.046Z,27.35
2022-11-18T17:22:03.547Z,27.90
2022-11-18T17:24:30.338Z,26.60
2022-11-18T17:27:07.220Z,30.15
2022-11-18T17:29:34.682Z,29.75
2022-11-18T17:32:01.799Z,29.35
2022-11-18T17:34:28.547Z,28.33
2022-11-18T17:36:55.324Z,27.92
2022-11-18T17:39:22.061Z,34.75
2022-11-18T17:42:07.232Z,33.13
2022-11-18T17:44:33.949Z,25.48
2022-11-18T17:47:02.786Z,30.40
2022-11-18T17:49:29.510Z,32.40
2022-11-18T17:51:56.287Z,29.27
2022-11-18T17:54:23.314Z,27.30
2022-11-18T17:56:53.526Z,30.95
2022-11-18T17:59:21.596Z,31.73
2022-11-18T18:02:02.518Z,28.33
2022-11-18T18:04:29.405Z,31.65
2022-11-18T18:06:56.263Z,30.67
2022-11-18T18:09:35.074Z,29.83
2022-11-18T18:12:21.834Z,29.98
2022-11-18T18:14:48.574Z,31.25
2022-11-18T18:17:15.319Z,30.35
2022-11-18T18:19:42.077Z,32.42
2022-11-18T18:22:08.862Z,35.08
2022-11-18T18:24:35.602Z,39.33
2022-11-18T18:27:02.318Z,40.95
2022-11-18T18:29:29.087Z,38.70
2022-11-18T18:31:55.891Z,31.13
2022-11-18T18:34:22.746Z,35.28
2022-11-18T18:36:49.528Z,35.45
2022-11-18T18:39:16.354Z,33.45
2022-11-18T18:41:43.140Z,35.08
2022-11-18T18:44:15.205Z,33.65
2022-11-18T18:46:44.977Z,30.30
2022-11-18T18:49:20.199Z,32.30
2022-11-18T18:51:50.833Z,28.52
2022-11-18T18:54:20.062Z,29.95
2022-11-18T18:56:47.140Z,30.77
2022-11-18T18:59:14.014Z,29.83
2022-11-18T19:01:40.871Z,31.90
2022-11-18T19:04:11.283Z,33.22
2022-11-18T19:06:59.426Z,34.17
2022-11-18T19:09:26.359Z,31.67
2022-11-18T19:12:12.317Z,32.42
2022-11-18T19:14:39.724Z,32.35
2022-11-18T19:17:11.303Z,30.13
2022-11-18T19:19:58.694Z,31.80
2022-11-18T19:22:25.560Z,30.52
2022-11-18T19:27:40.451Z,32.45
2022-11-18T19:30:08.995Z,33.30
2022-11-18T19:32:36.934Z,32.22
2022-11-18T19:35:04.750Z,33.35
2022-11-18T19:37:32.266Z,32.53
2022-11-18T19:40:05.670Z,34.95
2022-11-18T19:42:36.345Z,34.40
2022-11-18T19:45:04.607Z,40.90
2022-11-18T19:47:31.756Z,38.50
2022-11-18T19:49:58.485Z,37.42
2022-11-18T19:52:25.482Z,36.00
2022-11-18T19:54:52.207Z,36.58
2022-11-18T19:57:19.017Z,34.03
2022-11-18T19:59:46.390Z,32.92
2022-11-18T20:02:14.340Z,32.80
2022-11-18T20:05:18.777Z,32.53
2022-11-18T20:07:45.597Z,65.32
2022-11-18T20:10:12.468Z,34.63
2022-11-18T20:12:40.820Z,34.92
2022-11-18T20:15:08.206Z,35.00
2022-11-18T20:17:34.947Z,35.05
2022-11-18T20:20:01.754Z,38.10
2022-11-18T20:22:28.548Z,34.72
2022-11-18T20:24:55.289Z,36.38
2022-11-18T20:27:22.125Z,36.65
2022-11-18T20:29:48.890Z,39.78
2022-11-18T20:32:15.655Z,34.90
2022-11-18T20:34:42.736Z,36.70
2022-11-18T20:37:09.558Z,36.97
2022-11-18T20:39:36.322Z,37.22
2022-11-18T20:42:21.410Z,37.40
2022-11-18T20:44:48.197Z,37.95
2022-11-18T20:47:14.952Z,37.25
2022-11-18T20:49:41.823Z,37.10
2022-11-18T20:52:08.534Z,38.10
2022-11-18T20:54:35.291Z,39.75
2022-11-18T20:57:02.075Z,37.53
2022-11-18T20:59:28.824Z,39.28
2022-11-18T21:01:55.594Z,35.05
2022-11-18T21:04:22.578Z,36.65
2022-11-18T21:06:49.738Z,36.85
2022-11-18T21:09:17.185Z,38.55
2022-11-18T21:11:44.205Z,34.90
2022-11-18T21:14:24.920Z,32.97
2022-11-18T21:16:55.255Z,35.65
2022-11-18T21:19:23.040Z,34.83
2022-11-18T21:21:52.711Z,36.35
2022-11-18T21:24:23.812Z,35.17
2022-11-18T21:26:54.329Z,35.50
2022-11-18T21:29:22.366Z,34.65
2022-11-18T21:31:49.742Z,33.60
2022-11-18T21:34:18.338Z,33.88
2022-11-18T21:36:50.361Z,32.28
2022-11-18T21:39:20.158Z,33.97
2022-11-18T21:41:52.072Z,32.78
2022-11-18T21:44:20.625Z,32.47
2022-11-18T21:46:47.434Z,32.05
2022-11-18T21:49:14.204Z,32.10
2022-11-18T21:51:40.962Z,32.15
2022-11-18T21:54:08.708Z,31.35
2022-11-18T21:56:35.622Z,30.13
2022-11-18T21:59:03.180Z,29.10
2022-11-18T22:01:32.139Z,29.13
2022-11-18T22:04:01.574Z,28.58
2022-11-18T22:06:30.242Z,28.58
2022-11-18T22:08:57.343Z,28.17
2022-11-18T22:11:25.635Z,29.48
2022-11-18T22:13:53.409Z,28.60
2022-11-18T22:16:24.582Z,29.48
2022-11-18T22:18:58.128Z,28.15
2022-11-18T22:21:27.113Z,30.90
2022-11-18T22:23:59.195Z,28.83
2022-11-18T22:26:26.150Z,30.38
2022-11-18T22:28:55.320Z,29.83
2022-11-18T22:31:23.212Z,28.10
2022-11-18T22:33:53.756Z,30.98
2022-11-18T22:36:22.741Z,30.50
2022-11-18T22:38:50.282Z,28.55
2022-11-18T22:41:37.968Z,30.73
2022-11-18T22:44:08.037Z,28.70
2022-11-18T22:46:39.876Z,28.33
2022-11-18T22:49:08.090Z,27.92
2022-11-18T22:51:36.180Z,27.70
2022-11-18T22:56:50.413Z,28.15
2022-11-18T22:59:17.634Z,26.95
2022-11-18T23:01:44.596Z,26.52
2022-11-18T23:04:11.362Z,28.52
2022-11-18T23:06:38.106Z,28.08
2022-11-18T23:09:05.039Z,29.38
2022-11-18T23:11:50.214Z,28.75
2022-11-18T23:14:17.063Z,26.55
2022-11-18T23:16:44.202Z,26.77
2022-11-18T23:19:15.914Z,24.33
2022-11-18T23:21:43.395Z,26.10
2022-11-18T23:24:18.972Z,25.83
2022-11-18T23:26:46.235Z,23.40
2022-11-18T23:29:14.426Z,25.35
2022-11-18T23:31:43.004Z,27.38
2022-11-18T23:34:15.157Z,27.05
2022-11-18T23:36:42.870Z,25.65
2022-11-18T23:39:09.787Z,26.15
2022-11-18T23:41:36.943Z,25.70
2022-11-18T23:44:04.442Z,26.27
2022-11-18T23:46:32.086Z,24.80
2022-11-18T23:48:59.309Z,26.83
2022-11-18T23:51:26.487Z,28.30
2022-11-18T23:53:55.414Z,26.35
2022-11-18T23:56:24.880Z,27.15
2022-11-18T23:58:53.370Z,29.17
